Time;durP1;ratioP1;P1;durP2;ratioP2;P2;SDS_P1;SDS_P2;PMS_P1;PMS_P2;Temp;Humidity;BMP_temperature;BMP_pressure;BME280_temperature;BME280_humidity;BME280_pressure;Samples;Min_cycle;Max_cycle;Signal;HPM_P1;HPM_P2
2023/05/04 00:02:55;;;;;;;;;;;12.20;37.30;;;11.09;38.44;102253.69;12249463;19;19907;-85
2023/05/04 00:06:57;;;;;;;;;;;12.20;37.30;;;11.14;38.53;102264.84;12248481;19;19918;-85
2023/05/04 00:10:58;;;;;;;;;;;12.20;37.40;;;11.07;38.59;102263.31;12250570;19;19914;-85
2023/05/04 00:15:00;;;;;;;;;;;12.10;37.40;;;11.05;38.57;102252.94;12250584;19;19915;-85
2023/05/04 00:19:02;;;;;;;;;;;12.10;37.40;;;11.00;38.74;102262.69;12248414;19;19941;-85
2023/05/04 00:23:04;;;;;;;;;;;12.00;37.40;;;10.97;38.64;102259.34;12249683;19;19923;-85
2023/05/04 00:27:05;;;;;;;;;;;12.00;37.40;;;10.92;38.68;102253.38;12250114;19;19931;-85
2023/05/04 00:31:07;;;;;;;;;;;12.00;37.50;;;10.89;38.79;102251.72;12250087;19;19938;-85
2023/05/04 00:35:09;;;;;;;;;;;12.00;37.40;;;10.71;38.73;102223.56;12249260;19;19922;-85
2023/05/04 00:39:12;;;;;;;;;;;11.90;37.40;;;10.65;38.77;102226.38;12245985;19;19907;-85
2023/05/04 00:43:13;;;;;;;;;;;11.90;37.50;;;10.62;38.85;102237.78;12247297;19;20398;-85
2023/05/04 00:47:15;;;;;;;;;;;11.80;37.40;;;10.41;38.80;102213.16;12245975;19;19936;-84
2023/05/04 00:51:19;;;;;;;;;;;11.80;37.50;;;10.40;38.73;102212.31;12246997;19;19919;-84
2023/05/04 00:55:21;;;;;;;;;;;11.70;37.40;;;10.48;38.77;102226.91;12246829;19;19911;-84
2023/05/04 00:59:23;;;;;;;;;;;11.70;37.50;;;10.39;38.79;102228.03;12242666;19;19923;-84
2023/05/04 01:03:25;;;;;;;;;;;11.60;37.50;;;10.48;38.88;102258.25;12247361;19;19923;-84
2023/05/04 01:07:49;;;;;;;;;;;11.60;37.50;;;10.09;38.89;102194.06;12244399;19;20377;-84
2023/05/04 01:11:59;;;;;;;;;;;11.50;37.50;;;10.23;39.16;102222.38;12247699;19;19926;-85
2023/05/04 01:16:02;;;;;;;;;;;11.50;37.50;;;10.18;38.96;102225.13;12246239;19;19979;-85
2023/05/04 01:20:03;;;;;;;;;;;11.40;37.60;;;10.14;38.91;102217.44;12243655;19;19918;-84
2023/05/04 01:24:05;;;;;;;;;;;11.40;37.60;;;10.23;39.04;102227.59;12245526;19;20376;-85
2023/05/04 01:28:12;;;;;;;;;;;11.30;37.60;;;10.02;38.92;102203.00;12244806;19;19934;-85
2023/05/04 01:32:16;;;;;;;;;;;11.60;37.70;;;10.07;39.10;102216.75;12246276;19;19930;-85
2023/05/04 01:36:19;;;;;;;;;;;11.30;37.60;;;10.11;38.95;102233.19;12246584;19;19915;-85
2023/05/04 01:40:21;;;;;;;;;;;11.30;37.60;;;9.92;39.21;102214.59;12244313;19;19983;-84
2023/05/04 01:44:22;;;;;;;;;;;11.20;37.60;;;9.94;39.08;102226.69;12241363;19;19919;-84
2023/05/04 01:48:25;;;;;;;;;;;11.50;37.70;;;9.86;39.16;102220.84;12242732;19;19914;-84
2023/05/04 01:52:28;;;;;;;;;;;11.10;37.60;;;9.84;39.10;102230.44;12245007;19;19918;-84
2023/05/04 01:56:30;;;;;;;;;;;11.10;37.60;;;9.88;39.28;102239.03;12240303;19;19927;-85
2023/05/04 02:00:32;;;;;;;;;;;11.00;37.60;;;9.75;39.23;102228.97;12244345;19;19974;-84
2023/05/04 02:04:35;;;;;;;;;;;11.00;37.60;;;9.49;39.17;102187.94;12242419;19;19939;-85
2023/05/04 02:08:36;;;;;;;;;;;10.90;37.60;;;9.51;39.34;102193.97;12244221;19;20249;-85
2023/05/04 02:12:38;;;;;;;;;;;10.90;37.60;;;9.67;39.38;102222.25;12256048;19;19914;-85
2023/05/04 02:16:40;;;;;;;;;;;10.90;37.70;;;9.42;39.26;102188.13;12255274;19;19927;-84
2023/05/04 02:20:41;;;;;;;;;;;10.80;37.70;;;9.59;39.53;102224.22;12254463;19;19944;-85
2023/05/04 02:24:43;;;;;;;;;;;10.80;37.70;;;9.51;39.48;102211.38;12251583;19;19911;-85
2023/05/04 02:28:44;;;;;;;;;;;10.80;37.70;;;9.41;39.52;102189.03;12253543;19;19925;-84
2023/05/04 02:32:46;;;;;;;;;;;10.70;37.70;;;9.47;39.42;102201.91;12255160;19;19952;-85
2023/05/04 02:36:49;;;;;;;;;;;10.90;37.80;;;9.40;39.49;102206.44;12254062;19;19907;-85
2023/05/04 02:40:51;;;;;;;;;;;10.70;37.80;;;9.44;39.60;102220.25;12255100;19;19949;-85
2023/05/04 02:44:53;;;;;;;;;;;10.60;37.80;;;9.24;39.48;102197.31;12251323;19;20313;-85
2023/05/04 02:48:55;;;;;;;;;;;10.60;37.70;;;9.27;39.48;102218.94;12251174;19;19919;-84
2023/05/04 02:52:57;;;;;;;;;;;10.50;37.70;;;8.99;39.46;102178.81;12255268;19;19911;-84
2023/05/04 02:56:59;;;;;;;;;;;10.50;37.80;;;9.05;39.49;102205.59;12252129;19;19911;-85
2023/05/04 03:01:01;;;;;;;;;;;10.40;37.80;;;9.15;39.69;102228.81;12253509;19;20282;-85
2023/05/04 03:05:03;;;;;;;;;;;10.30;37.80;;;8.99;39.53;102204.88;12249675;19;20286;-85
2023/05/04 03:09:05;;;;;;;;;;;10.30;37.80;;;9.06;39.76;102220.31;12251235;19;19983;-84
2023/05/04 03:13:07;;;;;;;;;;;10.30;37.80;;;8.81;39.67;102188.81;12254808;19;20605;-84
2023/05/04 03:17:09;;;;;;;;;;;10.20;37.80;;;8.97;39.57;102225.78;12254075;19;19911;-84
2023/05/04 03:21:10;;;;;;;;;;;10.20;37.90;;;8.88;39.66;102209.50;12252026;19;20872;-84
2023/05/04 03:25:12;;;;;;;;;;;10.10;37.80;;;8.89;39.80;102217.28;12252689;19;19922;-85
2023/05/04 03:29:14;;;;;;;;;;;10.10;37.90;;;8.82;39.71;102211.34;12249188;19;20330;-85
2023/05/04 03:33:15;;;;;;;;;;;10.10;37.90;;;8.77;39.65;102210.59;12251997;19;19939;-85
2023/05/04 03:37:18;;;;;;;;;;;10.30;38.00;;;8.63;39.79;102195.31;12249910;19;19919;-85
2023/05/04 03:41:20;;;;;;;;;;;10.20;38.00;;;8.69;39.69;102215.13;12252271;19;19956;-84
2023/05/04 03:45:22;;;;;;;;;;;10.00;37.90;;;8.36;39.84;102165.53;12249533;19;19978;-84
2023/05/04 03:49:24;;;;;;;;;;;10.00;38.00;;;8.63;39.89;102217.88;12250656;19;19942;-85
2023/05/04 03:53:25;;;;;;;;;;;9.80;38.00;;;8.58;39.70;102219.75;12249461;19;19945;-85
2023/05/04 03:57:27;;;;;;;;;;;10.00;38.00;;;8.48;39.99;102205.22;12249163;19;19948;-84
2023/05/04 04:01:30;;;;;;;;;;;9.80;38.00;;;8.50;39.79;102206.03;12251556;19;20787;-84
2023/05/04 04:05:32;;;;;;;;;;;9.80;38.00;;;8.14;39.93;102157.34;12249741;19;20261;-84
2023/05/04 04:09:33;;;;;;;;;;;9.80;38.00;;;8.40;40.04;102203.66;12247753;19;19990;-85
2023/05/04 04:13:35;;;;;;;;;;;9.70;38.00;;;8.47;40.04;102211.31;12248605;19;19997;-85
2023/05/04 04:17:36;;;;;;;;;;;9.80;38.10;;;8.45;40.07;102215.69;12246375;19;19915;-85
2023/05/04 04:21:38;;;;;;;;;;;9.70;38.10;;;8.45;39.85;102218.28;12248885;19;19930;-85
2023/05/04 04:25:40;;;;;;;;;;;9.70;38.10;;;8.15;40.06;102166.00;12238928;19;19929;-86
2023/05/04 04:29:42;;;;;;;;;;;9.70;38.20;;;8.09;40.07;102160.94;12238781;19;19994;-85
2023/05/04 04:33:43;;;;;;;;;;;9.70;38.30;;;8.31;40.14;102198.59;12236208;19;20311;-85
2023/05/04 04:37:45;;;;;;;;;;;9.70;38.20;;;8.33;40.10;102206.38;12245215;19;19918;-86
2023/05/04 04:41:47;;;;;;;;;;;9.70;38.20;;;8.27;40.15;102196.13;12249716;19;19975;-86
2023/05/04 04:45:49;;;;;;;;;;;9.70;38.30;;;8.23;40.16;102191.84;12259607;19;20332;-86
2023/05/04 04:49:50;;;;;;;;;;;9.70;38.30;;;8.02;40.18;102157.63;12261109;19;19919;-86
2023/05/04 04:53:52;;;;;;;;;;;9.60;38.30;;;8.30;40.20;102199.50;12262837;19;20262;-86
2023/05/04 04:57:54;;;;;;;;;;;9.60;38.50;;;8.32;40.29;102205.53;12260993;19;19926;-86
2023/05/04 05:01:56;;;;;;;;;;;9.60;38.50;;;8.05;40.15;102164.50;12263434;19;20918;-86
2023/05/04 05:06:00;;;;;;;;;;;9.60;38.40;;;8.18;40.45;102190.22;12261439;19;19922;-86
2023/05/04 05:10:02;;;;;;;;;;;9.60;38.80;;;8.15;40.27;102181.59;12261400;19;19911;-86
2023/05/04 05:14:03;;;;;;;;;;;9.60;38.90;;;8.14;40.55;102179.91;12253118;19;19915;-85
2023/05/04 05:18:05;;;;;;;;;;;9.60;38.80;;;8.27;40.46;102199.56;12242659;19;19952;-86
2023/05/04 05:22:07;;;;;;;;;;;9.70;38.80;;;8.37;40.77;102195.00;12242760;19;19940;-86
2023/05/04 05:26:08;;;;;;;;;;;9.70;39.20;;;8.52;40.74;102207.72;12244472;19;19929;-86
2023/05/04 05:30:10;;;;;;;;;;;9.80;39.40;;;8.53;40.54;102196.44;12242205;19;19915;-86
2023/05/04 05:34:11;;;;;;;;;;;9.90;39.50;;;8.54;40.72;102181.66;12247770;19;19939;-86
2023/05/04 05:38:14;;;;;;;;;;;10.00;39.70;;;8.76;40.87;102201.09;12246296;19;19918;-85
2023/05/04 05:42:17;;;;;;;;;;;10.20;39.70;;;8.95;40.91;102201.50;12247992;19;19938;-85
2023/05/04 05:46:18;;;;;;;;;;;10.20;40.40;;;8.87;40.95;102166.97;12262837;19;20336;-85
2023/05/04 05:50:22;;;;;;;;;;;10.40;40.40;;;9.31;41.04;102199.69;12259571;19;19911;-85
2023/05/04 05:54:23;;;;;;;;;;;10.60;40.80;;;9.46;41.34;102180.19;12259135;19;19922;-86
2023/05/04 05:58:25;;;;;;;;;;;10.90;40.60;;;9.85;41.47;102192.16;12256429;19;19907;-85
2023/05/04 06:02:26;;;;;;;;;;;11.20;40.80;;;10.22;41.43;102206.75;12258034;19;19948;-86
2023/05/04 06:06:27;;;;;;;;;;;11.50;41.30;;;10.37;41.47;102183.69;12256952;19;19923;-86
2023/05/04 06:10:29;;;;;;;;;;;11.90;40.80;;;10.67;41.59;102182.78;12259283;19;19911;-85
2023/05/04 06:14:31;;;;;;;;;;;12.20;40.90;;;11.00;41.66;102196.50;12258201;19;19918;-85
2023/05/04 06:18:32;;;;;;;;;;;12.50;40.70;;;11.11;41.49;102176.06;12256261;19;19917;-85
2023/05/04 06:22:34;;;;;;;;;;;12.70;41.00;;;11.34;41.43;102171.78;12256905;19;19911;-86
2023/05/04 06:26:35;;;;;;;;;;;12.90;40.30;;;11.27;41.53;102135.41;12256163;19;20265;-85
2023/05/04 06:30:37;;;;;;;;;;;13.20;40.20;;;11.75;41.35;102193.88;12256246;19;19915;-86
2023/05/04 06:34:38;;;;;;;;;;;13.30;39.80;;;11.59;41.33;102153.47;12254767;19;19922;-86
2023/05/04 06:38:40;;;;;;;;;;;13.50;39.70;;;11.89;41.33;102185.53;12253432;19;20376;-86
2023/05/04 06:42:42;;;;;;;;;;;13.60;39.60;;;12.04;41.36;102186.72;12252956;19;19938;-87
2023/05/04 06:46:44;;;;;;;;;;;13.70;40.50;;;12.14;41.38;102185.47;12254396;19;19915;-88
2023/05/04 06:50:46;;;;;;;;;;;13.80;40.00;;;12.15;41.43;102164.47;12252930;19;19911;-88
2023/05/04 06:54:47;;;;;;;;;;;13.90;39.90;;;12.42;41.51;102198.34;12246642;19;19911;-88
2023/05/04 06:58:49;;;;;;;;;;;14.00;39.50;;;12.55;41.48;102196.09;12246283;19;19927;-88
2023/05/04 07:02:54;;;;;;;;;;;14.10;39.60;;;12.68;41.42;102197.31;12250880;19;19940;-87
2023/05/04 07:06:55;;;;;;;;;;;14.30;39.80;;;12.81;41.42;102197.66;12250788;19;19934;-88
2023/05/04 07:10:57;;;;;;;;;;;14.40;39.90;;;12.93;41.49;102201.53;12250807;19;19910;-87
2023/05/04 07:14:59;;;;;;;;;;;14.50;39.70;;;12.88;41.40;102158.94;12252703;19;19911;-87
2023/05/04 07:19:00;;;;;;;;;;;14.60;39.50;;;13.11;41.40;102174.56;12249996;19;19926;-87
2023/05/04 07:23:02;;;;;;;;;;;14.80;39.70;;;13.38;41.44;102192.69;12253369;19;19918;-87
2023/05/04 07:27:04;;;;;;;;;;;14.90;39.60;;;13.47;41.49;102181.78;12249601;19;19918;-87
2023/05/04 07:31:05;;;;;;;;;;;15.10;39.60;;;13.71;41.54;102193.81;12251786;19;19927;-87
2023/05/04 07:35:07;;;;;;;;;;;15.20;39.00;;;13.91;41.61;102185.06;12248450;19;19918;-87
2023/05/04 07:39:09;;;;;;;;;;;15.40;39.30;;;14.13;41.61;102182.28;12249123;19;19985;-87
2023/05/04 07:43:10;;;;;;;;;;;15.60;39.20;;;14.06;41.54;102132.72;12251047;19;19975;-87
2023/05/04 07:47:12;;;;;;;;;;;15.80;39.40;;;14.36;41.42;102138.28;12247810;19;19978;-88
2023/05/04 07:51:13;;;;;;;;;;;16.10;39.30;;;14.76;41.39;102173.16;12250218;19;19915;-87
2023/05/04 07:55:15;;;;;;;;;;;16.30;39.20;;;15.09;41.59;102169.78;12240513;19;19922;-87
2023/05/04 07:59:20;;;;;;;;;;;16.60;39.40;;;15.16;41.51;102129.06;12240063;19;20030;-87
2023/05/04 08:03:21;;;;;;;;;;;16.90;39.60;;;15.68;41.63;102155.25;12242278;19;19915;-87
2023/05/04 08:07:23;;;;;;;;;;;17.20;39.20;;;15.90;41.49;102145.31;12244474;19;19927;-87
2023/05/04 08:11:25;;;;;;;;;;;17.50;38.80;;;16.03;41.39;102134.06;12247943;19;19922;-86
2023/05/04 08:15:28;;;;;;;;;;;17.70;38.70;;;16.28;41.34;102144.09;12248032;19;19918;-86
2023/05/04 08:19:30;;;;;;;;;;;17.90;38.20;;;16.45;41.41;102141.34;12246928;19;19918;-87
2023/05/04 08:23:32;;;;;;;;;;;18.00;38.50;;;16.65;41.48;102142.84;12249139;19;19910;-87
2023/05/04 08:27:33;;;;;;;;;;;18.20;38.20;;;16.89;41.31;102145.84;12243783;19;19919;-88
2023/05/04 08:31:36;;;;;;;;;;;18.40;38.10;;;17.14;41.13;102139.13;12247005;19;19915;-87
2023/05/04 08:35:37;;;;;;;;;;;18.60;37.70;;;17.27;40.99;102132.16;12247777;19;19925;-87
2023/05/04 08:39:39;;;;;;;;;;;18.90;37.60;;;17.51;41.16;102136.88;12243333;19;20269;-87
2023/05/04 08:43:41;;;;;;;;;;;19.10;36.60;;;17.57;41.16;102115.34;12244667;19;19923;-87
2023/05/04 08:47:43;;;;;;;;;;;19.20;37.40;;;17.83;40.78;102126.97;12244374;19;19907;-88
2023/05/04 08:51:46;;;;;;;;;;;19.40;36.50;;;17.95;40.71;102134.09;12245592;19;19918;-87
2023/05/04 08:55:50;;;;;;;;;;;19.50;36.40;;;18.06;40.71;102121.03;12246770;19;19930;-87
2023/05/04 08:59:52;;;;;;;;;;;19.70;37.10;;;18.19;40.76;102118.44;12241623;19;19922;-87
2023/05/04 09:04:00;;;;;;;;;;;19.80;37.10;;;18.38;40.61;102123.38;12240378;19;20336;-88
2023/05/04 09:08:01;;;;;;;;;;;20.00;37.30;;;18.46;40.66;102096.44;12241928;19;19923;-87
2023/05/04 09:12:03;;;;;;;;;;;20.10;37.20;;;18.72;40.78;102102.63;12243957;19;19923;-87
2023/05/04 09:16:06;;;;;;;;;;;20.30;37.00;;;18.90;40.71;102108.47;12245424;19;19923;-88
2023/05/04 09:20:08;;;;;;;;;;;20.50;35.70;;;19.05;40.29;102107.44;12245159;19;19918;-88
2023/05/04 09:24:11;;;;;;;;;;;20.60;36.50;;;19.09;40.55;102097.47;12254406;19;19921;-88
2023/05/04 09:28:13;;;;;;;;;;;20.70;36.50;;;19.28;40.58;102116.44;12252457;19;20499;-87
2023/05/04 09:32:14;;;;;;;;;;;20.80;35.10;;;19.40;40.35;102106.78;12256606;19;20344;-88
2023/05/04 09:36:20;;;;;;;;;;;20.90;36.40;;;19.58;40.05;102104.66;12257704;19;19918;-88
2023/05/04 09:40:34;;;;;;;;;;;21.10;36.60;;;19.72;40.41;102106.34;12255977;19;19907;-88
2023/05/04 09:44:35;;;;;;;;;;;21.10;36.40;;;19.70;39.90;102082.59;12255628;19;19982;-88
2023/05/04 09:48:37;;;;;;;;;;;21.30;36.60;;;19.96;40.42;102096.59;12252241;19;19923;-88
2023/05/04 09:52:40;;;;;;;;;;;21.40;36.90;;;19.91;39.95;102060.78;12257469;19;19937;-88
2023/05/04 09:56:48;;;;;;;;;;;21.60;35.40;;;20.18;40.02;102089.72;12253593;19;20321;-88
2023/05/04 10:00:49;;;;;;;;;;;21.70;35.30;;;20.15;39.51;102069.56;12254568;19;20313;-88
2023/05/04 10:04:51;;;;;;;;;;;21.80;36.30;;;20.35;39.83;102078.69;12251617;19;20342;-87
2023/05/04 10:08:52;;;;;;;;;;;21.80;35.60;;;20.33;39.68;102070.84;12251204;19;20623;-88
2023/05/04 10:12:54;;;;;;;;;;;21.90;35.70;;;20.42;39.12;102069.31;12251608;19;19918;-87
2023/05/04 10:17:33;;;;;;;;;;;21.90;35.60;;;20.43;39.13;102076.31;12250665;19;19922;-87
2023/05/04 10:21:55;;;;;;;;;;;21.90;33.90;;;20.38;39.13;102067.00;12256433;19;19930;-87
2023/05/04 10:26:30;;;;;;;;;;;21.90;34.80;;;20.37;39.06;102057.34;12246880;19;20006;-87
2023/05/04 10:30:32;;;;;;;;;;;21.80;35.30;;;20.37;39.27;102041.44;12249617;19;19915;-88
2023/05/04 10:34:34;;;;;;;;;;;21.80;33.80;;;20.48;38.95;102031.69;12255666;19;20309;-89
2023/05/04 10:38:37;;;;;;;;;;;21.90;35.60;;;20.67;38.91;102025.00;12253902;19;19938;-87
2023/05/04 10:42:41;;;;;;;;;;;22.00;34.40;;;20.71;38.85;102014.03;12253820;19;19911;-87
2023/05/04 10:46:43;;;;;;;;;;;22.10;33.60;;;20.87;38.95;102018.97;12255135;19;19919;-87
2023/05/04 10:50:45;;;;;;;;;;;22.10;35.00;;;20.83;38.84;101983.00;12252149;19;20368;-87
2023/05/04 10:54:57;;;;;;;;;;;22.30;34.30;;;21.05;38.89;101986.63;12255402;19;20325;-87
2023/05/04 10:59:07;;;;;;;;;;;22.40;35.20;;;21.30;38.91;102002.28;12247297;19;19911;-87
2023/05/04 11:03:10;;;;;;;;;;;22.60;35.30;;;21.41;38.69;101996.13;12252720;19;19922;-87
2023/05/04 11:07:12;;;;;;;;;;;22.70;34.80;;;21.43;38.65;101992.38;12251645;19;19943;-87
2023/05/04 11:11:14;;;;;;;;;;;22.80;34.80;;;21.55;38.68;102001.19;12253916;19;20320;-87
2023/05/04 11:15:15;;;;;;;;;;;22.90;33.70;;;21.44;38.17;101979.94;12254171;19;19915;-87
2023/05/04 11:19:17;;;;;;;;;;;22.90;35.10;;;21.53;38.46;101981.88;12249287;19;20350;-87
2023/05/04 11:23:19;;;;;;;;;;;23.00;35.10;;;21.52;38.36;101958.94;12251477;19;19933;-87
2023/05/04 11:27:26;;;;;;;;;;;22.90;34.80;;;21.74;38.05;101965.09;12250992;19;19936;-87
2023/05/04 11:31:28;;;;;;;;;;;23.10;34.40;;;21.83;38.31;101964.34;12253172;19;20332;-87
2023/05/04 11:35:29;;;;;;;;;;;23.10;34.80;;;21.91;38.00;101964.56;12252359;19;19927;-87
2023/05/04 11:39:32;;;;;;;;;;;23.10;34.10;;;21.79;37.87;101933.66;12249596;19;19915;-86
2023/05/04 11:43:35;;;;;;;;;;;23.20;33.30;;;21.87;37.89;101947.16;12250359;19;20285;-87
2023/05/04 11:47:37;;;;;;;;;;;23.20;34.40;;;22.00;38.00;101958.44;12249266;19;20054;-87
2023/05/04 11:51:39;;;;;;;;;;;23.30;34.60;;;21.92;38.06;101923.66;12244464;19;19925;-87
2023/05/04 11:55:40;;;;;;;;;;;23.30;35.00;;;22.15;37.90;101944.84;12249203;19;19971;-87
2023/05/04 11:59:48;;;;;;;;;;;23.30;34.50;;;22.23;37.69;101931.75;12244368;19;20479;-87
2023/05/04 12:03:53;;;;;;;;;;;23.40;35.10;;;22.07;37.47;101908.25;12249685;19;19921;-87
2023/05/04 12:07:55;;;;;;;;;;;23.50;34.80;;;22.03;37.49;101912.97;12248701;19;20400;-87
2023/05/04 12:11:56;;;;;;;;;;;23.40;32.70;;;22.22;37.39;101940.69;12246461;19;19926;-87
2023/05/04 12:16:10;;;;;;;;;;;23.40;34.30;;;22.17;37.62;101906.50;12246729;19;20315;-87
2023/05/04 12:20:22;;;;;;;;;;;23.40;34.00;;;22.25;37.47;101914.69;12248669;19;19949;-87
2023/05/04 12:24:26;;;;;;;;;;;23.40;34.70;;;22.13;37.50;101890.91;12248948;19;20326;-87
2023/05/04 12:28:28;;;;;;;;;;;23.50;34.10;;;22.10;37.39;101887.53;12246224;19;19930;-87
2023/05/04 12:32:29;;;;;;;;;;;23.50;33.90;;;22.22;37.45;101909.59;12247656;19;19930;-88
2023/05/04 12:36:31;;;;;;;;;;;23.50;32.60;;;22.12;37.04;101886.56;12248102;19;19934;-87
2023/05/04 12:40:32;;;;;;;;;;;23.50;34.10;;;22.08;37.13;101885.97;12246210;19;19911;-87
2023/05/04 12:44:34;;;;;;;;;;;23.50;30.90;;;22.30;36.89;101911.63;12246805;19;19939;-88
2023/05/04 12:48:36;;;;;;;;;;;23.50;33.50;;;22.15;37.03;101886.31;12242925;19;20536;-87
2023/05/04 12:52:39;;;;;;;;;;;23.50;32.60;;;22.16;37.20;101885.31;12235953;19;19934;-87
2023/05/04 12:56:41;;;;;;;;;;;23.50;31.60;;;22.34;36.84;101918.38;12246044;19;20360;-87
2023/05/04 13:00:42;;;;;;;;;;;23.50;32.90;;;22.31;36.94;101905.34;12249906;19;19926;-87
2023/05/04 13:04:44;;;;;;;;;;;23.50;32.50;;;22.25;36.97;101897.84;12243198;19;19982;-88
2023/05/04 13:08:46;;;;;;;;;;;23.50;32.70;;;22.23;36.53;101894.50;12244369;19;19940;-87
2023/05/04 13:12:47;;;;;;;;;;;23.50;32.70;;;22.31;36.63;101900.84;12242754;19;20245;-87
2023/05/04 13:16:49;;;;;;;;;;;23.40;33.20;;;22.31;36.67;101881.38;12245338;19;19983;-87
2023/05/04 13:20:52;;;;;;;;;;;23.50;33.80;;;22.39;36.62;101876.22;12243699;19;19927;-87
2023/05/04 13:24:54;;;;;;;;;;;23.50;33.40;;;22.31;36.51;101850.28;12239027;19;19929;-87
2023/05/04 13:28:55;;;;;;;;;;;23.60;33.70;;;22.41;36.56;101860.13;12242127;19;19919;-88
2023/05/04 13:32:57;;;;;;;;;;;23.60;31.00;;;22.53;36.44;101875.03;12247168;19;19923;-87
2023/05/04 13:36:59;;;;;;;;;;;23.60;32.30;;;22.50;36.28;101859.31;12249348;19;20365;-89
2023/05/04 13:41:00;;;;;;;;;;;23.60;32.40;;;22.53;36.03;101861.72;12249066;19;19932;-88
2023/05/04 13:45:02;;;;;;;;;;;23.70;33.40;;;22.46;36.19;101829.44;12246479;19;19915;-88
2023/05/04 13:49:04;;;;;;;;;;;23.70;33.60;;;22.62;35.89;101847.56;12248900;19;19918;-88
2023/05/04 13:53:05;;;;;;;;;;;23.70;32.80;;;22.71;36.20;101851.22;12248919;19;19919;-88
2023/05/04 13:57:07;;;;;;;;;;;23.80;31.60;;;22.77;36.27;101850.72;12244380;19;20300;-87
2023/05/04 14:01:09;;;;;;;;;;;23.80;33.30;;;22.61;36.08;101803.28;12248250;19;19923;-88
2023/05/04 14:05:10;;;;;;;;;;;23.90;32.70;;;22.66;36.08;101789.59;12248976;19;20334;-87
2023/05/04 14:09:12;;;;;;;;;;;23.90;33.40;;;22.87;36.11;101813.41;12256900;19;19915;-88
2023/05/04 14:13:13;;;;;;;;;;;23.90;33.10;;;22.90;35.69;101814.00;12258523;19;20337;-87
2023/05/04 14:17:15;;;;;;;;;;;24.00;34.30;;;22.81;35.68;101796.16;12253159;19;20349;-87
2023/05/04 14:21:16;;;;;;;;;;;24.00;33.60;;;22.70;35.76;101767.84;12258355;19;19946;-87
2023/05/04 14:25:18;;;;;;;;;;;24.00;32.60;;;22.81;35.44;101793.50;12252464;19;19926;-86
2023/05/04 14:29:19;;;;;;;;;;;23.90;32.80;;;22.74;35.34;101771.94;12254166;19;19915;-87
2023/05/04 14:33:21;;;;;;;;;;;23.90;33.30;;;22.86;35.42;101785.94;12255657;19;19915;-87
2023/05/04 14:37:22;;;;;;;;;;;23.90;32.90;;;22.87;35.43;101779.66;12253741;19;20424;-86
2023/05/04 14:41:23;;;;;;;;;;;23.90;33.50;;;22.89;35.12;101779.50;12256536;19;19938;-87
2023/05/04 14:45:25;;;;;;;;;;;23.90;33.30;;;22.95;35.35;101778.94;12250518;19;20372;-87
2023/05/04 14:49:26;;;;;;;;;;;24.00;33.30;;;22.99;35.36;101767.06;12253781;19;20407;-87
2023/05/04 14:53:32;;;;;;;;;;;24.00;33.30;;;23.07;35.58;101775.19;12246042;19;19936;-86
2023/05/04 14:57:33;;;;;;;;;;;24.10;33.30;;;23.11;35.36;101749.09;12251552;19;19922;-87
2023/05/04 15:01:34;;;;;;;;;;;24.10;33.50;;;23.10;35.39;101752.75;12256045;19;19946;-87
2023/05/04 15:05:36;;;;;;;;;;;24.20;29.70;;;23.04;35.02;101734.69;12246627;19;19919;-86
2023/05/04 15:09:37;;;;;;;;;;;24.20;32.90;;;23.09;34.91;101743.09;12248976;19;20300;-87
2023/05/04 15:13:39;;;;;;;;;;;24.20;32.00;;;23.10;35.07;101745.59;12252729;19;19970;-87
2023/05/04 15:17:41;;;;;;;;;;;24.20;32.70;;;23.11;34.99;101746.44;12252690;19;19921;-86
2023/05/04 15:21:42;;;;;;;;;;;24.20;32.90;;;23.13;35.08;101739.97;12251490;19;20244;-86
2023/05/04 15:25:44;;;;;;;;;;;24.10;32.70;;;23.10;35.14;101739.44;12249078;19;20352;-87
2023/05/04 15:29:46;;;;;;;;;;;24.10;32.50;;;23.01;34.91;101724.28;12249625;19;19960;-87
2023/05/04 15:33:47;;;;;;;;;;;24.10;30.50;;;22.99;35.01;101727.09;12254657;19;19911;-86
2023/05/04 15:37:48;;;;;;;;;;;24.00;32.70;;;22.84;34.93;101708.00;12251577;19;19942;-87
2023/05/04 15:41:50;;;;;;;;;;;24.00;32.70;;;22.90;34.83;101717.25;12252222;19;19914;-87
2023/05/04 15:45:51;;;;;;;;;;;23.90;33.20;;;22.93;34.49;101723.16;12252241;19;19926;-87
2023/05/04 15:49:53;;;;;;;;;;;23.90;32.90;;;22.75;34.46;101683.03;12249728;19;19911;-87
2023/05/04 15:53:55;;;;;;;;;;;23.90;32.70;;;22.90;34.72;101701.25;12250711;19;19919;-86
2023/05/04 15:57:56;;;;;;;;;;;23.90;32.70;;;22.82;34.56;101699.31;12249325;19;20277;-87
2023/05/04 16:01:58;;;;;;;;;;;23.90;31.20;;;22.73;34.80;101694.81;12252045;19;19910;-87
2023/05/04 16:06:00;;;;;;;;;;;23.90;32.30;;;22.62;34.55;101687.81;12245567;19;19922;-86
2023/05/04 16:10:02;;;;;;;;;;;23.80;32.80;;;22.64;34.21;101693.00;12247218;19;19930;-87
2023/05/04 16:14:03;;;;;;;;;;;23.70;32.00;;;22.67;34.70;101706.03;12250683;19;19911;-87
2023/05/04 16:18:08;;;;;;;;;;;23.70;32.60;;;22.65;34.55;101702.66;12249238;19;19941;-87
2023/05/04 16:22:09;;;;;;;;;;;23.60;32.80;;;22.64;34.21;101703.66;12251189;19;19974;-86
2023/05/04 16:26:11;;;;;;;;;;;23.60;32.70;;;22.57;34.29;101694.53;12246397;19;19994;-87
2023/05/04 16:30:14;;;;;;;;;;;23.60;32.10;;;22.36;34.37;101666.25;12250786;19;19942;-87
2023/05/04 16:34:16;;;;;;;;;;;23.60;32.10;;;22.34;34.10;101660.22;12245743;19;19918;-87
2023/05/04 16:38:18;;;;;;;;;;;23.50;31.60;;;22.52;34.30;101687.81;12249433;19;19933;-88
2023/05/04 16:42:20;;;;;;;;;;;23.50;32.10;;;22.51;34.42;101683.47;12249449;19;20344;-87
2023/05/04 16:46:22;;;;;;;;;;;23.50;32.70;;;22.27;34.34;101654.56;12248266;19;19946;-87
2023/05/04 16:50:23;;;;;;;;;;;23.40;32.50;;;22.45;34.35;101680.53;12236590;19;20264;-86
2023/05/04 16:54:24;;;;;;;;;;;23.40;32.80;;;22.32;34.37;101659.50;12248879;19;19923;-87
2023/05/04 16:58:27;;;;;;;;;;;23.40;31.60;;;22.41;33.83;101671.97;12247432;19;19915;-88
2023/05/04 17:02:28;;;;;;;;;;;23.30;32.70;;;22.42;34.31;101668.34;12247651;19;19936;-88
2023/05/04 17:06:30;;;;;;;;;;;23.40;32.80;;;22.23;34.18;101636.38;12249072;19;19923;-88
2023/05/04 17:10:31;;;;;;;;;;;23.40;32.70;;;22.35;34.25;101661.03;12248168;19;19942;-88
2023/05/04 17:14:35;;;;;;;;;;;23.30;32.70;;;22.26;33.93;101649.41;12248178;19;20618;-87
2023/05/04 17:18:37;;;;;;;;;;;23.40;32.60;;;22.32;34.08;101664.81;12244122;19;19952;-86
2023/05/04 17:22:42;;;;;;;;;;;23.30;31.90;;;22.21;34.15;101657.81;12245560;19;19925;-87
2023/05/04 17:26:44;;;;;;;;;;;23.20;31.70;;;22.23;34.09;101666.50;12242564;19;20019;-87
2023/05/04 17:30:45;;;;;;;;;;;23.20;32.70;;;22.16;33.89;101659.16;12247483;19;19944;-87
2023/05/04 17:34:47;;;;;;;;;;;23.10;32.80;;;22.07;34.03;101652.84;12245393;19;19918;-87
2023/05/04 17:38:48;;;;;;;;;;;23.10;32.90;;;22.09;34.00;101659.72;12241716;19;19940;-88
2023/05/04 17:42:49;;;;;;;;;;;23.10;33.00;;;22.13;33.94;101668.25;12256527;19;20345;-87
2023/05/04 17:46:51;;;;;;;;;;;23.00;32.80;;;22.09;33.85;101674.84;12258184;19;20259;-87
2023/05/04 17:50:53;;;;;;;;;;;23.00;33.00;;;22.04;33.66;101667.25;12258473;19;19935;-87
2023/05/04 17:54:54;;;;;;;;;;;22.90;33.20;;;21.86;34.24;101644.97;12258220;19;19923;-86
2023/05/04 17:58:56;;;;;;;;;;;22.90;33.20;;;21.89;33.83;101660.63;12253672;19;19923;-87
2023/05/04 18:02:57;;;;;;;;;;;22.80;33.20;;;21.78;33.82;101655.44;12258520;19;19952;-87
2023/05/04 18:06:59;;;;;;;;;;;22.70;33.30;;;21.76;33.99;101663.53;12254763;19;19915;-86
2023/05/04 18:11:01;;;;;;;;;;;22.70;33.40;;;21.71;34.08;101668.44;12256900;19;19946;-86
2023/05/04 18:15:02;;;;;;;;;;;22.60;33.40;;;21.62;33.83;101678.03;12257602;19;20249;-85